createdAt,value
2019-01-23T00:00:10.080Z,20.66
2019-01-23T00:01:19.058Z,20.64
2019-01-23T00:02:28.594Z,20.62
2019-01-23T00:03:37.837Z,20.61
2019-01-23T00:04:46.631Z,20.61
2019-01-23T00:05:55.893Z,20.62
2019-01-23T00:07:05.450Z,20.58
2019-01-23T00:08:14.501Z,20.55
2019-01-23T00:09:23.792Z,20.42
2019-01-23T00:10:33.140Z,20.52
2019-01-23T00:11:42.449Z,20.5
2019-01-23T00:12:51.499Z,20.39
2019-01-23T00:14:01.025Z,20.42
2019-01-23T00:15:10.376Z,20.51
2019-01-23T00:16:19.623Z,20.43
2019-01-23T00:17:28.943Z,20.5
2019-01-23T00:18:38.463Z,20.39
2019-01-23T00:19:47.689Z,20.42
2019-01-23T00:20:56.996Z,20.35
2019-01-23T00:22:06.107Z,20.33
2019-01-23T00:23:15.182Z,20.32
2019-01-23T00:24:24.438Z,20.36
2019-01-23T00:25:33.911Z,20.32
2019-01-23T00:26:42.933Z,20.39
2019-01-23T00:27:51.746Z,20.36
2019-01-23T00:29:01.047Z,20.32
2019-01-23T00:30:10.087Z,20.29
2019-01-23T00:31:19.853Z,20.31
2019-01-23T00:32:29.149Z,20.29
2019-01-23T00:33:38.656Z,20.26
2019-01-23T00:34:47.495Z,20.2
2019-01-23T00:35:56.777Z,20.2
2019-01-23T00:37:06.091Z,20.24
2019-01-23T00:38:15.618Z,20.2
2019-01-23T00:39:24.894Z,20.17
2019-01-23T00:40:33.928Z,20.17
2019-01-23T00:41:43.213Z,20.24
2019-01-23T00:42:52.819Z,20.21
2019-01-23T00:44:02.405Z,20.21
2019-01-23T00:45:11.920Z,20.23
2019-01-23T00:46:21.247Z,20.2
2019-01-23T00:47:30.341Z,20.2
2019-01-23T00:48:40.177Z,20.16
2019-01-23T00:49:49.427Z,20.13
2019-01-23T00:50:58.458Z,20.06
2019-01-23T00:52:07.575Z,20.08
2019-01-23T00:53:17.081Z,20.11
2019-01-23T00:54:26.092Z,20.13
2019-01-23T00:55:35.471Z,20.14
2019-01-23T00:56:45.276Z,20.1
2019-01-23T00:57:55.064Z,20.16
2019-01-23T00:59:04.151Z,20.11
2019-01-23T01:00:13.683Z,19.99
2019-01-23T01:01:22.963Z,20.11
2019-01-23T01:02:32.482Z,19.98
2019-01-23T01:03:42.229Z,20.02
2019-01-23T01:04:51.330Z,20.02
2019-01-23T01:06:00.379Z,19.99
2019-01-23T01:07:09.124Z,19.99
2019-01-23T01:08:18.901Z,20.05
2019-01-23T01:09:28.173Z,19.98
2019-01-23T01:10:37.700Z,20.02
2019-01-23T01:11:46.999Z,20.02
2019-01-23T01:12:56.020Z,19.99
2019-01-23T01:14:05.833Z,19.96
2019-01-23T01:15:17.882Z,20.02
2019-01-23T01:16:26.898Z,19.99
2019-01-23T01:17:36.162Z,19.91
2019-01-23T01:18:45.151Z,19.84
2019-01-23T01:19:54.662Z,19.81
2019-01-23T01:21:03.977Z,19.86
2019-01-23T01:22:13.328Z,19.87
2019-01-23T01:23:22.605Z,19.84
2019-01-23T01:24:32.132Z,19.84
2019-01-23T01:25:41.462Z,19.88
2019-01-23T01:26:50.972Z,19.84
2019-01-23T01:27:59.935Z,19.84
2019-01-23T01:29:09.481Z,19.86
2019-01-23T01:30:19.019Z,19.84
2019-01-23T01:31:28.586Z,19.88
2019-01-23T01:32:38.108Z,19.83
2019-01-23T01:33:47.380Z,19.71
2019-01-23T01:34:56.715Z,19.83
2019-01-23T01:36:05.939Z,19.91
2019-01-23T01:37:15.439Z,19.76
2019-01-23T01:38:24.472Z,19.78
2019-01-23T01:39:33.216Z,19.86
2019-01-23T01:40:42.236Z,19.8
2019-01-23T01:41:51.952Z,19.78
2019-01-23T01:43:01.697Z,19.73
2019-01-23T01:44:10.947Z,19.76
2019-01-23T01:45:20.496Z,19.71
2019-01-23T01:46:29.479Z,19.69
2019-01-23T01:47:38.270Z,19.73
2019-01-23T01:48:47.853Z,19.61
2019-01-23T01:49:57.127Z,19.73
2019-01-23T01:51:05.907Z,19.66
2019-01-23T01:52:15.229Z,19.66
2019-01-23T01:53:25.004Z,19.66
2019-01-23T01:54:34.288Z,19.65
2019-01-23T01:55:43.843Z,19.62
2019-01-23T01:56:53.068Z,19.74
2019-01-23T01:58:02.347Z,19.69
2019-01-23T01:59:15.112Z,19.69
2019-01-23T02:00:24.092Z,19.66
2019-01-23T02:01:33.094Z,19.63
2019-01-23T02:02:42.405Z,19.66
2019-01-23T02:03:51.944Z,19.58
2019-01-23T02:05:01.439Z,19.56
2019-01-23T02:06:10.436Z,19.63
2019-01-23T02:07:20.261Z,19.61
2019-01-23T02:08:29.058Z,19.63
2019-01-23T02:09:40.200Z,19.63
2019-01-23T02:10:53.270Z,19.66
2019-01-23T02:12:03.305Z,19.59
2019-01-23T02:13:13.079Z,19.59
2019-01-23T02:14:22.069Z,19.58
2019-01-23T02:15:31.083Z,19.59
2019-01-23T02:16:40.357Z,19.61
2019-01-23T02:17:50.144Z,19.58
2019-01-23T02:18:59.401Z,19.55
2019-01-23T02:20:08.944Z,19.55
2019-01-23T02:21:17.716Z,19.58
2019-01-23T02:22:26.967Z,19.62
2019-01-23T02:23:36.512Z,19.59
2019-01-23T02:24:45.526Z,19.59
2019-01-23T02:25:55.062Z,19.58
2019-01-23T02:27:04.106Z,19.5
2019-01-23T02:28:13.675Z,19.55
2019-01-23T02:29:23.029Z,19.56
2019-01-23T02:30:32.346Z,19.59
2019-01-23T02:31:41.633Z,19.5
2019-01-23T02:32:50.849Z,19.51
2019-01-23T02:34:00.370Z,19.56
2019-01-23T02:35:09.881Z,19.47
2019-01-23T02:36:19.117Z,19.48
2019-01-23T02:37:28.371Z,19.5
2019-01-23T02:38:37.832Z,19.51
2019-01-23T02:39:47.128Z,19.47
2019-01-23T02:40:56.694Z,19.44
2019-01-23T02:42:06.167Z,19.44
2019-01-23T02:43:15.771Z,19.41
2019-01-23T02:44:25.029Z,19.5
2019-01-23T02:45:34.312Z,19.47
2019-01-23T02:46:43.526Z,19.5
2019-01-23T02:47:52.770Z,19.5
2019-01-23T02:49:02.338Z,19.47
2019-01-23T02:50:11.648Z,19.46
2019-01-23T02:51:20.735Z,19.46
2019-01-23T02:52:30.290Z,19.48
2019-01-23T02:53:40.307Z,19.39
2019-01-23T02:54:49.626Z,19.39
2019-01-23T02:55:59.175Z,19.46
2019-01-23T02:57:08.687Z,19.32
2019-01-23T02:58:18.527Z,19.46
2019-01-23T02:59:29.480Z,19.39
2019-01-23T03:00:39.343Z,19.39
2019-01-23T03:01:49.126Z,19.32
2019-01-23T03:02:58.202Z,19.39
2019-01-23T03:04:07.718Z,19.32
2019-01-23T03:05:17.510Z,19.33
2019-01-23T03:06:26.778Z,19.4
2019-01-23T03:07:36.821Z,19.39
2019-01-23T03:08:45.879Z,19.31
2019-01-23T03:09:55.401Z,19.4
2019-01-23T03:11:04.912Z,19.39
2019-01-23T03:12:14.181Z,19.36
2019-01-23T03:13:23.753Z,19.4
2019-01-23T03:14:32.783Z,19.32
2019-01-23T03:15:42.361Z,19.29
2019-01-23T03:16:51.435Z,19.32
2019-01-23T03:18:00.982Z,19.22
2019-01-23T03:19:10.496Z,19.25
2019-01-23T03:20:19.515Z,19.25
2019-01-23T03:21:29.013Z,19.28
2019-01-23T03:22:38.536Z,19.28
2019-01-23T03:23:47.594Z,19.28
2019-01-23T03:24:57.122Z,19.26
2019-01-23T03:26:06.676Z,19.26
2019-01-23T03:27:15.899Z,19.32
2019-01-23T03:28:25.196Z,19.22
2019-01-23T03:29:34.166Z,19.29
2019-01-23T03:30:43.738Z,19.29
2019-01-23T03:31:53.280Z,19.22
2019-01-23T03:33:03.292Z,19.23
2019-01-23T03:34:12.818Z,19.22
2019-01-23T03:35:21.812Z,19.26
2019-01-23T03:36:31.045Z,19.23
2019-01-23T03:37:40.596Z,19.25
2019-01-23T03:38:49.857Z,19.26
2019-01-23T03:39:59.119Z,19.21
2019-01-23T03:41:08.404Z,19.19
2019-01-23T03:42:18.141Z,19.22
2019-01-23T03:43:27.948Z,19.19
2019-01-23T03:44:37.429Z,19.29
2019-01-23T03:45:46.412Z,19.23
2019-01-23T03:46:55.467Z,19.21
2019-01-23T03:48:04.506Z,19.22
2019-01-23T03:49:14.190Z,19.13
2019-01-23T03:50:23.306Z,19.19
2019-01-23T03:51:32.534Z,19.22
2019-01-23T03:52:41.818Z,19.22
2019-01-23T03:53:51.591Z,19.18
2019-01-23T03:55:00.588Z,19.21
2019-01-23T03:56:10.116Z,19.08
2019-01-23T03:57:19.442Z,19.18
2019-01-23T03:58:28.689Z,19.19
2019-01-23T03:59:37.918Z,19.13
2019-01-23T04:00:47.408Z,19.14
2019-01-23T04:01:57.161Z,19.13
2019-01-23T04:03:06.180Z,19.11
2019-01-23T04:04:16.144Z,19.16
2019-01-23T04:05:25.841Z,19.13
2019-01-23T04:06:36.219Z,19.13
2019-01-23T04:07:45.782Z,19.08
2019-01-23T04:08:55.070Z,19.13
2019-01-23T04:10:04.858Z,19.1
2019-01-23T04:11:13.658Z,19.08
2019-01-23T04:12:23.426Z,19.08
2019-01-23T04:13:32.411Z,19.06
2019-01-23T04:14:42.211Z,19.08
2019-01-23T04:15:51.742Z,19.1
2019-01-23T04:17:01.475Z,19.1
2019-01-23T04:18:10.708Z,19.02
2019-01-23T04:19:19.689Z,19.06
2019-01-23T04:20:29.428Z,19.08
2019-01-23T04:21:38.901Z,19.04
2019-01-23T04:22:48.669Z,19.08
2019-01-23T04:23:58.149Z,19.08
2019-01-23T04:25:07.439Z,19.08
2019-01-23T04:26:16.697Z,19.06
2019-01-23T04:27:25.957Z,19.08
2019-01-23T04:28:34.966Z,19.11
2019-01-23T04:29:44.581Z,19.08
2019-01-23T04:30:54.078Z,19.06
2019-01-23T04:32:03.641Z,18.98
2019-01-23T04:33:13.150Z,19.04
2019-01-23T04:34:23.117Z,19.04
2019-01-23T04:35:32.632Z,18.95
2019-01-23T04:36:42.153Z,19.04
2019-01-23T04:37:51.396Z,18.98
2019-01-23T04:39:00.929Z,18.99
2019-01-23T04:40:10.423Z,19
2019-01-23T04:41:20.006Z,18.95
2019-01-23T04:42:29.471Z,18.99
2019-01-23T04:43:38.679Z,19.02
2019-01-23T04:44:47.733Z,18.95
2019-01-23T04:45:56.541Z,18.94
2019-01-23T04:47:06.260Z,18.98
2019-01-23T04:48:15.811Z,18.98
2019-01-23T04:49:25.447Z,18.98
2019-01-23T04:50:34.967Z,18.85
2019-01-23T04:51:44.238Z,18.99
2019-01-23T04:52:53.775Z,18.95
2019-01-23T04:54:03.374Z,18.94
2019-01-23T04:55:12.628Z,18.94
2019-01-23T04:56:22.481Z,18.92
2019-01-23T04:57:31.730Z,18.94
2019-01-23T04:58:41.553Z,18.98
2019-01-23T04:59:51.641Z,18.95
2019-01-23T05:01:00.879Z,18.95
2019-01-23T05:02:10.107Z,18.9
2019-01-23T05:03:19.317Z,18.94
2019-01-23T05:04:28.866Z,18.95
2019-01-23T05:05:38.879Z,18.91
2019-01-23T05:06:47.915Z,18.98
2019-01-23T05:07:57.235Z,18.87
2019-01-23T05:09:06.335Z,18.91
2019-01-23T05:10:15.345Z,18.92
2019-01-23T05:11:24.907Z,18.84
2019-01-23T05:12:33.909Z,18.87
2019-01-23T05:13:43.455Z,18.84
2019-01-23T05:14:52.768Z,18.84
2019-01-23T05:16:02.536Z,18.91
2019-01-23T05:17:11.650Z,18.82
2019-01-23T05:18:21.177Z,18.95
2019-01-23T05:19:30.754Z,18.99
2019-01-23T05:20:40.006Z,18.9
2019-01-23T05:21:49.330Z,18.92
2019-01-23T05:22:58.882Z,18.92
2019-01-23T05:24:08.366Z,18.94
2019-01-23T05:25:17.653Z,18.9
2019-01-23T05:26:26.688Z,18.82
2019-01-23T05:27:36.486Z,18.88
2019-01-23T05:28:46.201Z,18.9
2019-01-23T05:29:59.500Z,18.9
2019-01-23T05:31:08.759Z,18.88
2019-01-23T05:32:18.010Z,18.82
2019-01-23T05:33:28.035Z,18.9
2019-01-23T05:34:37.813Z,18.81
2019-01-23T05:35:46.834Z,18.85
2019-01-23T05:36:56.379Z,18.87
2019-01-23T05:38:05.891Z,18.84
2019-01-23T05:39:15.375Z,18.9
2019-01-23T05:40:24.415Z,18.84
2019-01-23T05:41:33.403Z,18.81
2019-01-23T05:42:42.441Z,18.87
2019-01-23T05:43:51.976Z,18.87
2019-01-23T05:45:00.987Z,18.85
2019-01-23T05:46:10.557Z,18.85
2019-01-23T05:47:20.336Z,18.87
2019-01-23T05:48:29.609Z,18.87
2019-01-23T05:49:39.144Z,18.84
2019-01-23T05:50:47.920Z,18.82
2019-01-23T05:51:57.202Z,18.84
2019-01-23T05:53:06.701Z,18.84
2019-01-23T05:54:16.176Z,18.81
2019-01-23T05:55:25.692Z,18.81
2019-01-23T05:56:35.447Z,18.81
2019-01-23T05:57:44.517Z,18.81
2019-01-23T05:58:53.870Z,18.85
2019-01-23T06:00:07.254Z,18.81
2019-01-23T06:01:16.376Z,18.81
2019-01-23T06:02:25.900Z,18.78
2019-01-23T06:03:37.087Z,18.75
2019-01-23T06:04:46.333Z,18.82
2019-01-23T06:05:55.584Z,18.76
2019-01-23T06:07:05.156Z,18.78
2019-01-23T06:08:14.423Z,18.76
2019-01-23T06:09:23.470Z,18.84
2019-01-23T06:10:32.789Z,18.81
2019-01-23T06:11:42.302Z,18.87
2019-01-23T06:12:51.807Z,18.84
2019-01-23T06:14:01.583Z,18.82
2019-01-23T06:15:11.070Z,18.81
2019-01-23T06:16:20.675Z,18.81
2019-01-23T06:17:29.903Z,18.81
2019-01-23T06:18:39.198Z,18.88
2019-01-23T06:19:48.775Z,18.82
2019-01-23T06:20:58.143Z,18.84
2019-01-23T06:22:06.868Z,18.84
2019-01-23T06:23:15.833Z,18.81
2019-01-23T06:24:25.567Z,18.85
2019-01-23T06:25:35.095Z,18.78
2019-01-23T06:26:44.660Z,18.85
2019-01-23T06:27:53.974Z,18.84
2019-01-23T06:29:03.502Z,18.75
2019-01-23T06:30:14.831Z,18.8
2019-01-23T06:31:23.611Z,18.78
2019-01-23T06:32:32.945Z,18.78
2019-01-23T06:33:42.714Z,18.72
2019-01-23T06:34:52.276Z,18.69
2019-01-23T06:36:01.571Z,18.75
2019-01-23T06:37:10.527Z,18.7
2019-01-23T06:38:20.706Z,18.72
2019-01-23T06:39:29.498Z,18.78
2019-01-23T06:40:39.095Z,18.73
2019-01-23T06:41:48.571Z,18.7
2019-01-23T06:42:57.832Z,18.66
2019-01-23T06:44:07.353Z,18.7
2019-01-23T06:45:16.355Z,18.67
2019-01-23T06:46:25.652Z,18.73
2019-01-23T06:47:34.406Z,18.72
2019-01-23T06:48:43.869Z,18.72
2019-01-23T06:49:53.390Z,18.57
2019-01-23T06:51:03.899Z,18.55
2019-01-23T06:52:12.864Z,18.66
2019-01-23T06:53:21.654Z,18.55
2019-01-23T06:54:31.281Z,18.57
2019-01-23T06:55:40.767Z,18.57
2019-01-23T06:56:50.246Z,18.51
2019-01-23T06:57:59.481Z,18.58
2019-01-23T06:59:08.962Z,18.58
2019-01-23T07:00:22.262Z,18.65
2019-01-23T07:01:31.755Z,18.75
2019-01-23T07:02:41.254Z,18.8
2019-01-23T07:03:50.250Z,18.87
2019-01-23T07:04:59.506Z,18.9
2019-01-23T07:06:08.973Z,18.98
2019-01-23T07:07:18.241Z,19.04
2019-01-23T07:08:27.705Z,19.11
2019-01-23T07:09:37.184Z,19.31
2019-01-23T07:10:46.733Z,19.36
2019-01-23T07:11:56.287Z,19.46
2019-01-23T07:13:06.280Z,19.47
2019-01-23T07:14:15.539Z,19.56
2019-01-23T07:15:24.524Z,19.66
2019-01-23T07:16:33.762Z,19.62
2019-01-23T07:17:43.241Z,19.76
2019-01-23T07:18:52.518Z,19.91
2019-01-23T07:20:01.481Z,19.96
2019-01-23T07:21:11.014Z,19.95
2019-01-23T07:22:20.546Z,20.02
2019-01-23T07:23:29.822Z,20.18
2019-01-23T07:24:39.084Z,20.11
2019-01-23T07:25:48.317Z,20.26
2019-01-23T07:26:57.316Z,20.18
2019-01-23T07:28:06.299Z,20.32
2019-01-23T07:29:16.094Z,20.38
2019-01-23T07:30:29.307Z,20.41
2019-01-23T07:31:38.834Z,20.43
2019-01-23T07:32:48.368Z,20.5
2019-01-23T07:33:57.627Z,20.52
2019-01-23T07:35:06.934Z,20.55
2019-01-23T07:36:16.524Z,20.51
2019-01-23T07:37:25.820Z,20.61
2019-01-23T07:38:35.085Z,20.7
2019-01-23T07:39:44.632Z,20.66
2019-01-23T07:40:53.924Z,20.69
2019-01-23T07:42:03.528Z,20.67
2019-01-23T07:43:13.065Z,20.69
2019-01-23T07:44:22.169Z,20.61
2019-01-23T07:45:31.267Z,20.73
2019-01-23T07:46:40.836Z,20.66
2019-01-23T07:47:50.609Z,20.69
2019-01-23T07:48:59.628Z,20.67
2019-01-23T07:50:09.162Z,20.66
2019-01-23T07:51:18.453Z,20.61
2019-01-23T07:52:27.735Z,20.62
2019-01-23T07:53:37.566Z,20.64
2019-01-23T07:54:47.062Z,20.66
2019-01-23T07:55:55.842Z,20.64
2019-01-23T07:57:05.078Z,20.61
2019-01-23T07:58:14.644Z,20.74
2019-01-23T07:59:23.408Z,20.69
2019-01-23T08:00:36.522Z,20.67
2019-01-23T08:01:46.051Z,20.7
2019-01-23T08:02:55.594Z,20.79
2019-01-23T08:04:05.179Z,20.74
2019-01-23T08:05:19.355Z,20.84
2019-01-23T08:06:29.235Z,20.79
2019-01-23T08:07:38.550Z,20.79
2019-01-23T08:08:48.063Z,20.82
2019-01-23T08:09:57.372Z,20.8
2019-01-23T08:11:07.006Z,20.95
2019-01-23T08:12:16.322Z,20.98
2019-01-23T08:13:26.263Z,20.97
2019-01-23T08:14:35.874Z,21.03
2019-01-23T08:15:46.698Z,21.13
2019-01-23T08:16:55.765Z,20.98
2019-01-23T08:18:05.323Z,21.13
2019-01-23T08:19:14.605Z,21.09
2019-01-23T08:20:23.884Z,21.06
2019-01-23T08:21:33.201Z,21.13
2019-01-23T08:22:42.685Z,21.13
2019-01-23T08:23:52.250Z,21.12
2019-01-23T08:25:01.531Z,21.17
2019-01-23T08:26:11.037Z,21.16
2019-01-23T08:27:20.054Z,21.13
2019-01-23T08:28:29.632Z,21.1
2019-01-23T08:29:38.889Z,21.16
2019-01-23T08:30:48.200Z,21.09
2019-01-23T08:31:58.335Z,21.13
2019-01-23T08:33:07.666Z,21.04
2019-01-23T08:34:17.558Z,21.01
2019-01-23T08:35:27.177Z,21.04
2019-01-23T08:36:36.434Z,21.06
2019-01-23T08:37:45.475Z,21.06
2019-01-23T08:38:55.031Z,21.03
2019-01-23T08:40:04.813Z,20.99
2019-01-23T08:41:14.175Z,20.99
2019-01-23T08:42:23.727Z,20.98
2019-01-23T08:43:33.508Z,20.97
2019-01-23T08:44:42.734Z,20.92
2019-01-23T08:45:52.099Z,20.87
2019-01-23T08:47:01.886Z,20.84
2019-01-23T08:48:11.379Z,20.85
2019-01-23T08:49:21.366Z,20.82
2019-01-23T08:50:30.610Z,20.84
2019-01-23T08:51:39.683Z,20.77
2019-01-23T08:52:48.971Z,20.84
2019-01-23T08:53:57.988Z,20.82
2019-01-23T08:55:07.507Z,20.77
2019-01-23T08:56:16.499Z,20.84
2019-01-23T08:57:25.821Z,20.7
2019-01-23T08:58:35.046Z,20.72
2019-01-23T08:59:44.587Z,20.7
2019-01-23T09:00:53.874Z,20.66
2019-01-23T09:02:03.398Z,20.67
2019-01-23T09:03:12.461Z,20.67
2019-01-23T09:04:22.313Z,20.66
2019-01-23T09:05:32.129Z,20.61
2019-01-23T09:06:41.367Z,20.66
2019-01-23T09:07:50.140Z,20.61
2019-01-23T09:08:59.398Z,20.57
2019-01-23T09:10:08.684Z,20.58
2019-01-23T09:11:18.019Z,20.59
2019-01-23T09:12:27.233Z,20.69
2019-01-23T09:13:36.762Z,20.59
2019-01-23T09:14:46.824Z,20.62
2019-01-23T09:15:56.083Z,20.61
2019-01-23T09:17:05.866Z,20.62
2019-01-23T09:18:14.874Z,20.69
2019-01-23T09:19:23.686Z,20.67
2019-01-23T09:20:33.228Z,20.67
2019-01-23T09:21:42.280Z,20.69
2019-01-23T09:22:51.099Z,20.77
2019-01-23T09:24:00.637Z,20.85
2019-01-23T09:25:09.917Z,20.76
2019-01-23T09:26:19.445Z,20.91
2019-01-23T09:27:28.748Z,20.88
2019-01-23T09:28:38.502Z,20.94
2019-01-23T09:29:47.513Z,20.98
2019-01-23T09:30:58.115Z,20.98
2019-01-23T09:32:07.862Z,20.97
2019-01-23T09:33:17.659Z,20.97
2019-01-23T09:34:27.248Z,21.03
2019-01-23T09:35:36.886Z,21.09
2019-01-23T09:36:46.388Z,21.07
2019-01-23T09:37:55.427Z,21.03
2019-01-23T09:39:04.704Z,21.1
2019-01-23T09:40:14.558Z,21.09
2019-01-23T09:41:24.168Z,21.04
2019-01-23T09:42:34.009Z,21.07
2019-01-23T09:43:43.498Z,21.13
2019-01-23T09:44:52.852Z,21.12
2019-01-23T09:46:02.442Z,21.13
2019-01-23T09:47:11.546Z,21.13
2019-01-23T09:48:20.852Z,21.13
2019-01-23T09:49:30.096Z,21.04
2019-01-23T09:50:39.347Z,21.06
2019-01-23T09:51:48.338Z,21.01
2019-01-23T09:52:57.333Z,21.07
2019-01-23T09:54:06.926Z,21.04
2019-01-23T09:55:16.984Z,21.06
2019-01-23T09:56:26.509Z,21.04
2019-01-23T09:57:35.788Z,20.97
2019-01-23T09:58:44.856Z,21.06
2019-01-23T09:59:54.402Z,20.99
2019-01-23T10:01:06.524Z,20.98
2019-01-23T10:02:16.005Z,20.98
2019-01-23T10:03:27.526Z,20.94
2019-01-23T10:04:36.744Z,21.01
2019-01-23T10:05:45.985Z,20.92
2019-01-23T10:06:55.250Z,20.91
2019-01-23T10:08:04.526Z,20.89
2019-01-23T10:09:13.854Z,20.91
2019-01-23T10:10:22.909Z,20.87
2019-01-23T10:11:31.911Z,20.84
2019-01-23T10:12:41.648Z,20.84
2019-01-23T10:13:50.884Z,20.85
2019-01-23T10:15:00.230Z,20.82
2019-01-23T10:16:09.726Z,20.76
2019-01-23T10:17:19.025Z,20.76
2019-01-23T10:18:28.352Z,20.73
2019-01-23T10:19:37.483Z,20.8
2019-01-23T10:20:46.744Z,20.74
2019-01-23T10:21:56.252Z,20.73
2019-01-23T10:23:05.306Z,20.69
2019-01-23T10:24:14.832Z,20.69
2019-01-23T10:25:24.397Z,20.7
2019-01-23T10:26:33.418Z,20.69
2019-01-23T10:27:42.542Z,20.67
2019-01-23T10:28:51.577Z,20.69
2019-01-23T10:30:01.096Z,20.69
2019-01-23T10:31:11.229Z,20.7
2019-01-23T10:32:20.526Z,20.69
2019-01-23T10:33:29.521Z,20.66
2019-01-23T10:34:38.758Z,20.73
2019-01-23T10:35:47.541Z,20.69
2019-01-23T10:36:57.609Z,20.62
2019-01-23T10:38:06.929Z,20.73
2019-01-23T10:39:16.712Z,20.74
2019-01-23T10:40:26.066Z,20.82
2019-01-23T10:41:35.613Z,20.82
2019-01-23T10:42:44.606Z,20.79
2019-01-23T10:43:53.858Z,20.84
2019-01-23T10:45:03.616Z,20.84
2019-01-23T10:46:13.436Z,20.94
2019-01-23T10:47:22.702Z,20.92
2019-01-23T10:48:37.791Z,20.95
2019-01-23T10:49:47.880Z,20.99
2019-01-23T10:50:57.676Z,20.99
2019-01-23T10:52:07.709Z,21.06
2019-01-23T10:53:17.015Z,21.06
2019-01-23T10:54:27.093Z,21.03
2019-01-23T10:55:36.350Z,21.07
2019-01-23T10:56:46.146Z,21.16
2019-01-23T10:57:55.447Z,21.13
2019-01-23T10:59:04.497Z,21.1
2019-01-23T11:00:13.514Z,21.24
2019-01-23T11:01:23.084Z,21.13
2019-01-23T11:02:32.267Z,21.14
2019-01-23T11:03:41.825Z,21.19
2019-01-23T11:04:50.850Z,21.12
2019-01-23T11:06:00.419Z,21.19
2019-01-23T11:07:09.671Z,21.14
2019-01-23T11:08:18.456Z,21.19
2019-01-23T11:09:28.389Z,21.13
2019-01-23T11:10:37.776Z,21.13
2019-01-23T11:11:47.364Z,21.12
2019-01-23T11:12:56.678Z,21.13
2019-01-23T11:14:06.239Z,21.07
2019-01-23T11:15:15.565Z,21.13
2019-01-23T11:16:24.681Z,21.16
2019-01-23T11:17:33.979Z,21.1
2019-01-23T11:18:42.831Z,21.03
2019-01-23T11:19:52.397Z,21.04
2019-01-23T11:21:02.000Z,21.06
2019-01-23T11:22:11.560Z,21.12
2019-01-23T11:23:21.074Z,21.04
2019-01-23T11:24:30.559Z,21.07
2019-01-23T11:25:40.620Z,21.03
2019-01-23T11:26:49.945Z,20.95
2019-01-23T11:27:59.200Z,20.95
2019-01-23T11:29:08.159Z,20.95
2019-01-23T11:30:17.946Z,20.97
2019-01-23T11:31:26.809Z,20.94
2019-01-23T11:32:35.858Z,20.95
2019-01-23T11:33:44.942Z,20.97
2019-01-23T11:34:53.995Z,20.94
2019-01-23T11:36:03.527Z,20.82
2019-01-23T11:37:12.644Z,20.88
2019-01-23T11:38:22.206Z,20.85
2019-01-23T11:39:31.740Z,20.85
2019-01-23T11:40:41.066Z,20.8
2019-01-23T11:41:50.909Z,20.89
2019-01-23T11:43:00.208Z,20.77
2019-01-23T11:44:10.949Z,20.74
2019-01-23T11:45:20.308Z,20.77
2019-01-23T11:46:29.681Z,20.77
2019-01-23T11:47:38.998Z,20.8
2019-01-23T11:48:48.767Z,20.82
2019-01-23T11:49:58.056Z,20.77
2019-01-23T11:51:07.786Z,20.85
2019-01-23T11:52:17.324Z,20.77
2019-01-23T11:53:26.709Z,20.79
2019-01-23T11:54:35.763Z,20.77
2019-01-23T11:55:45.398Z,20.77
2019-01-23T11:56:54.454Z,20.8
2019-01-23T11:58:03.751Z,20.8
2019-01-23T11:59:13.381Z,20.79
2019-01-23T12:00:22.775Z,20.87
2019-01-23T12:01:32.468Z,20.94
2019-01-23T12:02:41.484Z,20.82
2019-01-23T12:03:51.218Z,20.92
2019-01-23T12:05:00.243Z,20.94
2019-01-23T12:06:09.748Z,20.94
2019-01-23T12:07:19.061Z,20.95
2019-01-23T12:08:27.806Z,21.04
2019-01-23T12:09:36.829Z,21.09
2019-01-23T12:10:46.359Z,21.04
2019-01-23T12:11:55.650Z,21.09
2019-01-23T12:13:04.681Z,21.04
2019-01-23T12:14:14.251Z,21.16
2019-01-23T12:15:23.377Z,21.13
2019-01-23T12:16:32.896Z,21.13
2019-01-23T12:17:42.297Z,21.19
2019-01-23T12:18:51.889Z,21.24
2019-01-23T12:20:01.142Z,21.21
2019-01-23T12:21:10.206Z,21.25
2019-01-23T12:22:19.789Z,21.27
2019-01-23T12:23:29.311Z,21.22
2019-01-23T12:24:38.960Z,21.19
2019-01-23T12:25:48.310Z,21.19
2019-01-23T12:26:57.596Z,21.22
2019-01-23T12:28:07.141Z,21.19
2019-01-23T12:29:16.215Z,21.21
2019-01-23T12:30:25.501Z,21.22
2019-01-23T12:31:39.966Z,21.21
2019-01-23T12:32:49.747Z,21.25
2019-01-23T12:33:59.513Z,21.14
2019-01-23T12:35:09.262Z,21.24
2019-01-23T12:36:18.075Z,21.17
2019-01-23T12:37:27.361Z,21.16
2019-01-23T12:38:36.715Z,21.13
2019-01-23T12:39:45.843Z,21.16
2019-01-23T12:40:55.142Z,21.13
2019-01-23T12:42:04.717Z,21.14
2019-01-23T12:43:13.776Z,21.13
2019-01-23T12:44:23.637Z,21.12
2019-01-23T12:45:32.535Z,21.03
2019-01-23T12:46:41.527Z,21.09
2019-01-23T12:47:51.089Z,21.03
2019-01-23T12:49:00.872Z,21.06
2019-01-23T12:50:10.485Z,21.07
2019-01-23T12:51:19.813Z,20.97
2019-01-23T12:52:29.585Z,21.01
2019-01-23T12:53:38.681Z,20.98
2019-01-23T12:54:47.836Z,20.98
2019-01-23T12:55:56.908Z,20.95
2019-01-23T12:57:06.190Z,20.92
2019-01-23T12:58:15.531Z,20.95
2019-01-23T12:59:25.050Z,20.89
2019-01-23T13:00:34.089Z,20.87
2019-01-23T13:01:47.052Z,20.87
2019-01-23T13:02:56.744Z,20.84
2019-01-23T13:04:06.342Z,20.91
2019-01-23T13:05:15.160Z,20.87
2019-01-23T13:06:24.938Z,20.8
2019-01-23T13:07:37.906Z,20.77
2019-01-23T13:08:47.236Z,20.82
2019-01-23T13:09:57.063Z,20.8
2019-01-23T13:11:06.599Z,20.8
2019-01-23T13:12:16.181Z,20.82
2019-01-23T13:13:25.705Z,20.77
2019-01-23T13:14:35.291Z,20.77
2019-01-23T13:15:44.658Z,20.76
2019-01-23T13:16:54.245Z,20.82
2019-01-23T13:18:04.081Z,20.8
2019-01-23T13:19:13.508Z,20.79
2019-01-23T13:20:22.839Z,20.79
2019-01-23T13:21:32.411Z,20.77
2019-01-23T13:22:41.693Z,20.8
2019-01-23T13:23:50.480Z,20.8
2019-01-23T13:25:00.709Z,20.84
2019-01-23T13:26:10.285Z,20.91
2019-01-23T13:27:19.606Z,20.98
2019-01-23T13:28:28.788Z,20.92
2019-01-23T13:29:37.857Z,21.01
2019-01-23T13:30:46.912Z,21.06
2019-01-23T13:31:56.487Z,21.07
2019-01-23T13:33:05.514Z,21.06
2019-01-23T13:34:14.281Z,21.06
2019-01-23T13:35:23.404Z,21.13
2019-01-23T13:36:32.978Z,21.14
2019-01-23T13:37:42.299Z,21.21
2019-01-23T13:38:52.452Z,21.25
2019-01-23T13:40:01.774Z,21.24
2019-01-23T13:41:10.880Z,21.32
2019-01-23T13:42:20.207Z,21.28
2019-01-23T13:43:29.759Z,21.29
2019-01-23T13:44:39.516Z,21.29
2019-01-23T13:45:49.106Z,21.31
2019-01-23T13:46:58.440Z,21.37
2019-01-23T13:48:08.274Z,21.34
2019-01-23T13:49:17.706Z,21.32
2019-01-23T13:50:27.550Z,21.27
2019-01-23T13:51:36.966Z,21.32
2019-01-23T13:52:46.041Z,21.31
2019-01-23T13:53:55.414Z,21.32
2019-01-23T13:55:04.853Z,21.34
2019-01-23T13:56:14.691Z,21.27
2019-01-23T13:57:23.961Z,21.29
2019-01-23T13:58:33.545Z,21.32
2019-01-23T13:59:49.117Z,21.24
2019-01-23T14:00:58.982Z,21.32
2019-01-23T14:02:08.226Z,21.24
2019-01-23T14:03:17.909Z,21.29
2019-01-23T14:04:27.266Z,21.27
2019-01-23T14:05:36.833Z,21.29
2019-01-23T14:06:46.348Z,21.22
2019-01-23T14:07:55.726Z,21.22
2019-01-23T14:09:05.041Z,21.22
2019-01-23T14:10:14.574Z,21.22
2019-01-23T14:11:24.215Z,21.13
2019-01-23T14:12:33.877Z,21.1
2019-01-23T14:13:43.402Z,21.13
2019-01-23T14:14:52.853Z,21.13
2019-01-23T14:16:02.079Z,21.16
2019-01-23T14:17:11.870Z,21.17
2019-01-23T14:18:21.440Z,21.09
2019-01-23T14:19:30.750Z,21.09
2019-01-23T14:20:39.527Z,21.03
2019-01-23T14:21:49.175Z,20.98
2019-01-23T14:22:58.482Z,21.03
2019-01-23T14:24:08.055Z,20.98
2019-01-23T14:25:17.112Z,20.99
2019-01-23T14:26:26.726Z,20.97
2019-01-23T14:27:36.050Z,20.92
2019-01-23T14:28:45.667Z,20.98
2019-01-23T14:29:55.005Z,20.95
2019-01-23T14:31:04.384Z,20.95
2019-01-23T14:32:13.867Z,20.95
2019-01-23T14:33:23.145Z,20.82
2019-01-23T14:34:32.258Z,20.87
2019-01-23T14:35:41.890Z,20.94
2019-01-23T14:36:51.011Z,20.91
2019-01-23T14:38:05.134Z,20.91
2019-01-23T14:39:14.443Z,20.87
2019-01-23T14:40:23.190Z,20.88
2019-01-23T14:41:32.460Z,20.88
2019-01-23T14:42:42.239Z,20.88
2019-01-23T14:43:51.300Z,20.88
2019-01-23T14:45:02.069Z,20.94
2019-01-23T14:46:11.489Z,20.91
2019-01-23T14:47:20.953Z,20.97
2019-01-23T14:48:30.240Z,20.95
2019-01-23T14:49:39.772Z,20.95
2019-01-23T14:50:48.855Z,20.99
2019-01-23T14:51:58.117Z,20.98
2019-01-23T14:53:07.335Z,21.04
2019-01-23T14:54:16.879Z,21.07
2019-01-23T14:55:26.391Z,21.17
2019-01-23T14:56:35.662Z,21.09